Time;durP1;ratioP1;P1;durP2;ratioP2;P2;SDS_P1;SDS_P2;PMS_P1;PMS_P2;Temp;Humidity;BMP_temperature;BMP_pressure;BME280_temperature;BME280_humidity;BME280_pressure;Samples;Min_cycle;Max_cycle;Signal;HPM_P1;HPM_P2
2022/04/18 00:00:45;;;;;;;261.75;242.15;;;;;;;;;;4991187;28;20038;-41
2022/04/18 00:03:11;;;;;;;411.33;377.05;;;;;;;;;;4994874;28;20391;-42
2022/04/18 00:05:39;;;;;;;520.70;483.23;;;7.30;99.70;;;;;;4992984;28;20041;-43
2022/04/18 00:08:07;;;;;;;600.25;557.88;;;7.00;99.90;;;;;;4993666;28;20037;-42
2022/04/18 00:10:33;;;;;;;404.05;379.92;;;;;;;;;;4975561;28;20049;-41
2022/04/18 00:12:59;;;;;;;463.35;434.33;;;;;;;;;;4994098;28;20412;-42
2022/04/18 00:15:24;;;;;;;359.73;337.05;;;6.90;99.90;;;;;;4992456;28;20038;-42
2022/04/18 00:17:50;;;;;;;384.60;358.30;;;;;;;;;;4993675;28;20046;-42
2022/04/18 00:20:16;;;;;;;261.58;245.18;;;;;;;;;;4993390;28;20072;-42
2022/04/18 00:22:44;;;;;;;270.77;254.10;;;;;;;;;;4992929;28;20065;-43
2022/04/18 00:25:12;;;;;;;278.75;260.95;;;6.80;99.90;;;;;;4992834;28;20065;-42
2022/04/18 00:27:38;;;;;;;371.15;345.92;;;;;;;;;;4992881;28;20111;-43
2022/04/18 00:30:04;;;;;;;489.42;450.52;;;6.80;99.90;;;;;;4992405;28;20626;-42
2022/04/18 00:32:30;;;;;;;567.13;524.83;;;;;;;;;;4993708;28;20041;-41
2022/04/18 00:34:57;;;;;;;691.72;634.70;;;;;;;;;;4994465;28;20138;-42
2022/04/18 00:37:23;;;;;;;736.58;672.42;;;;;;;;;;4974630;28;20050;-42
2022/04/18 00:39:49;;;;;;;782.50;700.50;;;;;;;;;;4993161;28;20044;-41
2022/04/18 00:42:16;;;;;;;906.17;780.42;;;6.70;99.90;;;;;;4993281;28;20046;-42
2022/04/18 00:44:42;;;;;;;656.42;562.22;;;;;;;;;;4993599;28;20092;-41
2022/04/18 00:47:09;;;;;;;653.03;526.38;;;6.60;99.90;;;;;;4992633;28;20038;-41
2022/04/18 00:49:35;;;;;;;385.58;346.98;;;;;;;;;;4994141;28;20038;-41
2022/04/18 00:52:04;;;;;;;71.93;59.28;;;6.40;99.90;;;;;;4993435;28;20503;-41
2022/04/18 00:54:32;;;;;;;52.90;39.42;;;6.40;99.90;;;;;;4992162;28;20068;-42
2022/04/18 00:56:58;;;;;;;24.80;18.88;;;;;;;;;;4992282;28;20038;-41
2022/04/18 00:59:24;;;;;;;27.35;22.25;;;;;;;;;;4992403;28;20084;-41
2022/04/18 01:01:50;;;;;;;27.67;20.20;;;;;;;;;;4993509;28;20121;-41
2022/04/18 01:04:16;;;;;;;35.30;25.60;;;;;;;;;;4993521;28;20551;-42
2022/04/18 01:06:42;;;;;;;16.30;10.80;;;;;;;;;;4996321;28;20037;-40
2022/04/18 01:09:10;;;;;;;17.40;10.38;;;6.40;99.90;;;;;;4997020;28;20064;-40
2022/04/18 01:11:36;;;;;;;19.98;12.95;;;;;;;;;;4996641;28;20042;-40
2022/04/18 01:14:02;;;;;;;19.20;10.13;;;;;;;;;;4995177;28;20046;-42
2022/04/18 01:16:28;;;;;;;14.98;9.35;;;;;;;;;;4996384;28;20037;-41
2022/04/18 01:18:56;;;;;;;16.30;10.18;;;;;;;;;;4996963;28;20085;-41
2022/04/18 01:21:22;;;;;;;17.25;10.73;;;;;;;;;;4995865;28;20042;-41
2022/04/18 01:23:48;;;;;;;17.13;9.93;;;;;;;;;;4995978;28;20038;-41
2022/04/18 01:29:03;;;;;;;16.65;10.70;;;6.70;99.90;;;;;;4995823;28;20067;-41
2022/04/18 01:31:36;;;;;;;18.15;11.70;;;6.50;99.90;;;;;;4994920;28;20124;-41
2022/04/18 01:34:04;;;;;;;18.80;11.00;;;6.40;99.90;;;;;;4996761;28;20057;-41
2022/04/18 01:36:30;;;;;;;19.80;10.93;;;6.70;99.90;;;;;;4995201;28;20152;-41
2022/04/18 01:38:57;;;;;;;17.67;10.15;;;;;;;;;;4996067;28;20129;-41
2022/04/18 01:41:25;;;;;;;15.95;10.27;;;6.50;99.90;;;;;;4978484;28;20049;-40
2022/04/18 01:43:51;;;;;;;16.13;10.77;;;;;;;;;;4994894;28;20073;-41
2022/04/18 01:46:18;;;;;;;18.70;11.15;;;6.40;99.90;;;;;;4976804;28;20691;-41
2022/04/18 01:48:50;;;;;;;16.27;10.43;;;6.50;99.90;;;;;;4995446;28;20049;-42
2022/04/18 01:51:16;;;;;;;21.35;11.70;;;;;;;;;;4995259;28;20127;-41
2022/04/18 01:53:42;;;;;;;19.13;10.60;;;;;;;;;;4994950;28;20042;-41
2022/04/18 01:56:08;;;;;;;18.58;11.75;;;;;;;;;;4993847;28;20131;-42
2022/04/18 01:58:34;;;;;;;18.92;10.60;;;;;;;;;;4995300;28;20506;-41
2022/04/18 02:01:00;;;;;;;19.70;10.95;;;;;;;;;;4993667;28;20034;-41
2022/04/18 02:03:26;;;;;;;18.48;11.05;;;;;;;;;;4996884;28;20049;-42
2022/04/18 02:05:55;;;;;;;18.42;11.18;;;;;;;;;;4995502;28;20553;-42
2022/04/18 02:08:22;;;;;;;17.27;11.40;;;;;;;;;;4995413;28;20047;-41
2022/04/18 02:10:50;;;;;;;16.52;10.93;;;6.10;99.90;;;;;;4994893;28;20109;-40
2022/04/18 02:13:16;;;;;;;19.05;11.35;;;;;;;;;;4996848;28;20505;-42
2022/04/18 02:15:42;;;;;;;17.88;11.98;;;;;;;;;;4994854;28;20887;-41
2022/04/18 02:18:08;;;;;;;20.05;11.50;;;;;;;;;;4993078;28;20491;-40
2022/04/18 02:20:34;;;;;;;19.33;11.65;;;;;;;;;;4996108;28;20684;-42
2022/04/18 02:23:00;;;;;;;18.10;11.40;;;;;;;;;;4995351;28;20037;-42
2022/04/18 02:25:27;;;;;;;18.02;11.23;;;;;;;;;;4994975;28;20287;-41
2022/04/18 02:27:53;;;;;;;20.92;12.05;;;;;;;;;;4995760;28;20080;-42
2022/04/18 02:30:19;;;;;;;18.13;12.00;;;;;;;;;;4995405;28;20209;-41
2022/04/18 02:32:48;;;;;;;18.63;11.93;;;;;;;;;;4995080;28;20402;-42
2022/04/18 02:35:18;;;;;;;17.95;11.90;;;5.80;99.90;;;;;;4995993;28;20049;-41
2022/04/18 02:37:44;;;;;;;19.83;12.05;;;;;;;;;;4993733;28;20518;-42
2022/04/18 02:40:12;;;;;;;18.55;11.63;;;5.70;99.90;;;;;;4993316;28;20753;-41
2022/04/18 02:42:40;;;;;;;18.55;11.95;;;5.60;99.90;;;;;;4995506;28;20042;-41
2022/04/18 02:45:06;;;;;;;22.05;11.60;;;;;;;;;;4976503;28;20412;-41
2022/04/18 02:47:32;;;;;;;18.67;11.85;;;;;;;;;;4994566;28;20541;-42
2022/04/18 02:49:58;;;;;;;21.27;12.70;;;;;;;;;;4995602;28;20065;-41
2022/04/18 02:52:24;;;;;;;19.30;12.23;;;;;;;;;;4995689;28;20270;-41
2022/04/18 02:54:50;;;;;;;20.02;11.38;;;;;;;;;;4993377;28;20045;-41
2022/04/18 02:57:18;;;;;;;18.20;11.90;;;5.60;99.90;;;;;;4994260;28;20054;-42
2022/04/18 02:59:44;;;;;;;21.25;12.57;;;;;;;;;;4994969;28;20042;-41
2022/04/18 03:02:10;;;;;;;18.38;11.55;;;;;;;;;;4994220;28;20041;-41
2022/04/18 03:04:36;;;;;;;20.50;12.63;;;;;;;;;;4994085;28;20157;-41
2022/04/18 03:07:02;;;;;;;18.40;11.60;;;;;;;;;;4995575;28;20038;-41
2022/04/18 03:09:28;;;;;;;18.80;11.30;;;;;;;;;;4992544;28;20563;-41
2022/04/18 03:11:56;;;;;;;17.75;11.52;;;;;;;;;;4993975;28;20057;-41
2022/04/18 03:14:23;;;;;;;17.30;11.90;;;;;;;;;;4993427;28;20839;-41
2022/04/18 03:16:49;;;;;;;19.25;12.07;;;;;;;;;;4994110;28;20041;-42
2022/04/18 03:19:17;;;;;;;21.15;11.85;;;6.60;99.90;;;;;;4993829;28;20044;-42
2022/04/18 03:21:43;;;;;;;17.27;10.63;;;;;;;;;;4993545;28;20042;-41
2022/04/18 03:24:09;;;;;;;17.25;10.68;;;;;;;;;;4994091;28;20088;-42
2022/04/18 03:26:38;;;;;;;19.25;11.40;;;5.20;99.90;;;;;;4993397;28;20057;-41
2022/04/18 03:29:04;;;;;;;17.45;10.93;;;;;;;;;;4993804;28;20085;-41
2022/04/18 03:31:30;;;;;;;18.70;11.20;;;;;;;;;;4992971;28;20069;-40
2022/04/18 03:33:59;;;;;;;17.23;11.38;;;5.00;99.90;;;;;;4993924;28;20765;-41
2022/04/18 03:41:57;;;;;;;18.00;11.15;;;4.90;99.90;;;;;;4993305;28;20068;-41
2022/04/18 03:44:23;;;;;;;18.40;10.75;;;;;;;;;;4995179;28;20053;-42
2022/04/18 03:46:49;;;;;;;16.95;11.00;;;;;;;;;;4994838;28;20038;-42
2022/04/18 03:49:15;;;;;;;18.20;10.70;;;;;;;;;;4993497;28;20141;-41
2022/04/18 03:51:41;;;;;;;16.17;10.43;;;;;;;;;;4994461;28;20042;-42
2022/04/18 03:54:07;;;;;;;19.13;11.07;;;;;;;;;;4994317;28;20044;-41
2022/04/18 03:56:35;;;;;;;15.40;9.98;;;4.80;99.90;;;;;;4993438;28;20042;-41
2022/04/18 03:59:01;;;;;;;15.52;9.95;;;;;;;;;;4993383;28;20037;-43
2022/04/18 04:01:27;;;;;;;15.63;10.05;;;;;;;;;;4994155;28;20097;-42
2022/04/18 04:03:53;;;;;;;16.33;9.57;;;;;;;;;;4993531;28;20033;-41
2022/04/18 04:06:19;;;;;;;17.55;10.13;;;;;;;;;;4993655;28;20161;-40
2022/04/18 04:08:45;;;;;;;16.73;10.02;;;;;;;;;;4992999;28;20129;-40
2022/04/18 04:11:13;;;;;;;18.23;10.80;;;4.70;99.90;;;;;;4993617;28;20462;-43
2022/04/18 04:13:39;;;;;;;17.27;10.25;;;;;;;;;;4993650;28;20407;-41
2022/04/18 04:16:05;;;;;;;16.63;10.40;;;;;;;;;;4993682;28;20163;-42
2022/04/18 04:18:33;;;;;;;17.45;10.18;;;4.70;99.90;;;;;;4975396;28;22201;-43
2022/04/18 04:20:59;;;;;;;17.27;10.13;;;;;;;;;;4993717;28;20184;-41
2022/04/18 04:23:25;;;;;;;16.77;9.63;;;;;;;;;;4992122;28;20137;-42
2022/04/18 04:25:51;;;;;;;17.17;10.32;;;;;;;;;;4993006;28;20042;-42
2022/04/18 04:28:17;;;;;;;15.38;9.90;;;;;;;;;;4992158;28;20072;-42
2022/04/18 04:30:43;;;;;;;17.85;10.25;;;;;;;;;;4992259;28;20038;-42
2022/04/18 04:33:12;;;;;;;18.15;10.00;;;4.70;99.90;;;;;;4974008;28;20069;-42
2022/04/18 04:35:38;;;;;;;14.93;9.98;;;;;;;;;;4993054;28;20045;-41
2022/04/18 04:38:06;;;;;;;18.60;10.30;;;4.60;99.90;;;;;;4992257;28;20053;-42
2022/04/18 04:40:32;;;;;;;15.90;10.88;;;;;;;;;;4992416;28;20046;-41
2022/04/18 04:42:58;;;;;;;16.67;10.43;;;;;;;;;;4992109;28;20132;-40
2022/04/18 04:45:24;;;;;;;16.52;10.07;;;4.60;99.90;;;;;;4992023;28;20140;-43
2022/04/18 04:47:50;;;;;;;16.35;9.70;;;;;;;;;;4991787;28;20045;-42
2022/04/18 04:50:16;;;;;;;16.83;11.00;;;;;;;;;;4992214;28;20038;-42
2022/04/18 04:52:43;;;;;;;16.48;9.35;;;;;;;;;;4992386;28;20387;-43
2022/04/18 04:55:10;;;;;;;15.43;9.82;;;;;;;;;;4992341;28;20465;-43
2022/04/18 04:57:37;;;;;;;18.30;10.10;;;;;;;;;;4991909;28;20050;-41
2022/04/18 05:00:04;;;;;;;14.77;10.40;;;4.90;99.90;;;;;;4992138;28;20050;-40
2022/04/18 05:02:30;;;;;;;14.93;9.68;;;;;;;;;;4992105;28;20415;-41
2022/04/18 05:04:56;;;;;;;17.13;9.18;;;;;;;;;;4993053;28;20133;-41
2022/04/18 05:07:22;;;;;;;14.02;8.98;;;;;;;;;;4992089;28;20141;-42
2022/04/18 05:09:48;;;;;;;16.33;9.93;;;;;;;;;;4991585;28;20478;-42
2022/04/18 05:12:14;;;;;;;15.02;9.27;;;;;;;;;;4992930;28;20144;-41
2022/04/18 05:14:43;;;;;;;15.38;9.43;;;5.10;99.90;;;;;;4991005;28;20521;-41
2022/04/18 05:17:09;;;;;;;15.05;10.07;;;;;;;;;;4991829;28;20046;-42
2022/04/18 05:19:35;;;;;;;17.10;10.63;;;;;;;;;;4992098;28;20096;-41
2022/04/18 05:22:01;;;;;;;14.95;9.32;;;;;;;;;;4992755;28;20046;-42
2022/04/18 05:24:27;;;;;;;14.52;9.45;;;;;;;;;;4992363;28;20129;-41
2022/04/18 05:26:53;;;;;;;15.82;9.18;;;;;;;;;;4992168;28;20471;-50
2022/04/18 05:29:19;;;;;;;16.20;9.48;;;;;;;;;;4992442;28;20042;-41
2022/04/18 05:31:45;;;;;;;13.13;9.27;;;;;;;;;;4992178;28;20129;-43
2022/04/18 05:34:11;;;;;;;18.27;9.90;;;;;;;;;;4992310;28;20870;-41
2022/04/18 05:36:38;;;;;;;12.75;8.98;;;6.00;99.90;;;;;;4993621;28;20569;-44
2022/04/18 05:39:05;;;;;;;14.25;8.93;;;;;;;;;;4992426;28;20050;-45
2022/04/18 05:41:30;;;;;;;17.77;9.55;;;7.00;99.90;;;;;;4991576;28;20687;-44
2022/04/18 05:43:56;;;;;;;20.50;9.80;;;7.20;99.90;;;;;;4991902;28;20647;-48
2022/04/18 05:46:22;;;;;;;18.75;10.57;;;7.80;99.90;;;;;;4990977;28;20618;-46
2022/04/18 05:48:48;;;;;;;14.68;9.43;;;8.50;99.90;;;;;;4991066;28;20522;-43
2022/04/18 05:51:14;;;;;;;14.23;9.20;;;9.30;99.90;;;;;;4974728;28;20061;-46
2022/04/18 05:53:41;;;;;;;12.95;8.70;;;10.80;99.90;;;;;;4996055;28;20038;-46
2022/04/18 05:56:09;;;;;;;13.88;8.95;;;13.40;99.90;;;;;;4995331;28;20053;-43
2022/04/18 05:58:35;;;;;;;13.77;8.65;;;13.00;99.90;;;;;;4994915;28;20188;-44
2022/04/18 06:01:00;;;;;;;12.68;8.75;;;13.00;99.90;;;;;;4994491;28;20030;-42
2022/04/18 06:03:26;;;;;;;14.02;9.00;;;12.50;99.90;;;;;;4994633;28;20529;-43
2022/04/18 06:05:52;;;;;;;13.73;8.88;;;12.70;99.90;;;;;;4995623;28;20052;-42
2022/04/18 06:08:17;;;;;;;16.65;9.50;;;13.10;99.80;;;;;;4995081;28;20507;-42
2022/04/18 06:10:47;;;;;;;14.25;9.68;;;13.10;99.20;;;;;;4993092;28;20053;-43
2022/04/18 06:13:12;;;;;;;22.42;15.52;;;14.00;99.20;;;;;;4992671;28;20050;-47
2022/04/18 06:15:38;;;;;;;137.27;74.53;;;14.60;97.60;;;;;;4995244;28;20254;-45
2022/04/18 06:18:04;;;;;;;1592.25;962.28;;;17.70;96.60;;;;;;4995100;28;20081;-43
2022/04/18 06:20:30;;;;;;;724.35;654.85;;;16.30;95.00;;;;;;4992828;28;20041;-47
2022/04/18 06:22:55;;;;;;;866.92;773.75;;;17.10;93.10;;;;;;4995622;28;20132;-45
2022/04/18 06:25:21;;;;;;;750.13;656.08;;;18.70;93.90;;;;;;4994522;28;20053;-48
2022/04/18 06:27:46;;;;;;;14.93;8.90;;;17.30;92.90;;;;;;4994129;28;20050;-45
2022/04/18 06:30:12;;;;;;;14.57;7.80;;;18.10;92.10;;;;;;4995434;28;20061;-47
2022/04/18 06:32:40;;;;;;;11.30;8.27;;;18.40;90.90;;;;;;4993630;28;20068;-47
2022/04/18 06:35:06;;;;;;;12.10;8.27;;;19.20;89.20;;;;;;4994219;28;20494;-44
2022/04/18 06:37:32;;;;;;;14.15;8.00;;;19.40;88.70;;;;;;4993445;28;20050;-44
2022/04/18 06:39:58;;;;;;;11.15;8.07;;;19.20;87.90;;;;;;4994252;28;20048;-44
2022/04/18 06:42:24;;;;;;;11.45;8.02;;;19.20;87.60;;;;;;4993329;28;20088;-47
2022/04/18 06:44:50;;;;;;;13.90;8.60;;;19.50;85.80;;;;;;4994169;28;20090;-48
2022/04/18 06:47:17;;;;;;;11.38;8.35;;;19.50;83.90;;;;;;4995792;28;20534;-48
2022/04/18 06:49:43;;;;;;;10.70;8.38;;;19.50;84.40;;;;;;4994330;28;20056;-44
2022/04/18 06:52:08;;;;;;;10.82;7.55;;;20.40;83.60;;;;;;4993309;28;20403;-47
2022/04/18 06:54:34;;;;;;;11.88;8.15;;;20.60;82.50;;;;;;4993965;28;20061;-48
2022/04/18 06:57:02;;;;;;;12.00;7.80;;;20.90;82.20;;;;;;4993387;28;20369;-47
2022/04/18 06:59:29;;;;;;;10.98;8.32;;;21.00;81.20;;;;;;4993890;28;20168;-45
2022/04/18 07:01:56;;;;;;;9.40;7.43;;;21.20;80.30;;;;;;4992881;28;21165;-45
2022/04/18 07:04:21;;;;;;;12.85;7.78;;;21.10;80.00;;;;;;4994511;28;20038;-49
2022/04/18 07:06:47;;;;;;;9.63;7.45;;;21.50;79.50;;;;;;4994113;28;20532;-43
2022/04/18 07:09:13;;;;;;;10.77;7.65;;;21.00;79.20;;;;;;4993149;28;20125;-45
2022/04/18 07:11:42;;;;;;;11.10;7.13;;;22.70;79.80;;;;;;4993439;28;20065;-47
2022/04/18 07:14:08;;;;;;;12.43;7.38;;;21.50;77.70;;;;;;4993702;28;20060;-46
2022/04/18 07:16:34;;;;;;;10.80;7.25;;;22.00;77.70;;;;;;4993187;28;20052;-47
2022/04/18 07:19:00;;;;;;;10.85;7.40;;;21.90;77.60;;;;;;4994075;28;20033;-47
2022/04/18 07:21:27;;;;;;;9.25;6.68;;;22.10;76.80;;;;;;4994610;28;20041;-48
2022/04/18 07:23:53;;;;;;;10.50;6.65;;;21.80;76.00;;;;;;4994365;28;20042;-44
2022/04/18 07:26:20;;;;;;;10.90;7.18;;;21.00;76.40;;;;;;4994026;28;20046;-44
2022/04/18 07:28:48;;;;;;;10.20;6.97;;;20.80;77.70;;;;;;4992012;28;20041;-45
2022/04/18 07:31:14;;;;;;;9.85;6.53;;;20.40;77.50;;;;;;4993392;28;20042;-48
2022/04/18 07:33:40;;;;;;;9.93;7.03;;;19.10;82.50;;;;;;4992579;28;20423;-48
2022/04/18 07:36:06;;;;;;;8.75;6.53;;;19.10;79.60;;;;;;4993401;28;20053;-49
2022/04/18 07:38:50;;;;;;;9.77;6.45;;;18.30;81.40;;;;;;4992953;28;20489;-47
2022/04/18 07:41:25;;;;;;;11.52;6.57;;;18.50;80.40;;;;;;4993543;28;20057;-45
2022/04/18 07:43:51;;;;;;;9.25;6.50;;;18.10;81.40;;;;;;4993358;28;20514;-47
2022/04/18 07:46:18;;;;;;;8.82;6.40;;;17.60;84.40;;;;;;4992864;28;20043;-48
2022/04/18 07:48:47;;;;;;;8.57;5.85;;;17.60;82.30;;;;;;4993390;28;20621;-43
2022/04/18 07:53:59;;;;;;;9.00;6.10;;;17.60;83.80;;;;;;4992446;28;20091;-44
2022/04/18 07:56:25;;;;;;;13.52;6.13;;;17.80;83.80;;;;;;4992208;28;20053;-47
2022/04/18 07:58:52;;;;;;;10.15;6.28;;;19.00;83.30;;;;;;4991958;28;20033;-46
2022/04/18 08:01:19;;;;;;;10.35;5.95;;;17.80;82.90;;;;;;4993031;28;20215;-44
2022/04/18 08:03:46;;;;;;;8.68;6.03;;;17.80;84.60;;;;;;4993381;28;20129;-48
2022/04/18 08:06:12;;;;;;;9.30;6.28;;;18.60;84.90;;;;;;4991766;28;20033;-46
2022/04/18 08:08:37;;;;;;;9.70;5.90;;;17.20;85.50;;;;;;4992511;28;20048;-44
2022/04/18 08:11:03;;;;;;;9.85;6.63;;;17.00;85.50;;;;;;4993017;28;20073;-48
2022/04/18 08:13:29;;;;;;;10.80;6.38;;;17.10;86.00;;;;;;4990809;28;20247;-45
2022/04/18 08:15:55;;;;;;;11.55;6.85;;;16.50;86.50;;;;;;4991783;28;20473;-45
2022/04/18 08:18:21;;;;;;;10.27;6.70;;;16.70;87.50;;;;;;4992762;28;20049;-48
2022/04/18 08:20:47;;;;;;;10.30;6.32;;;16.80;88.10;;;;;;4992367;28;20038;-48
2022/04/18 08:23:15;;;;;;;10.77;6.75;;;16.80;87.50;;;;;;4991483;28;20537;-45
2022/04/18 08:25:40;;;;;;;9.18;6.38;;;17.00;86.60;;;;;;4991637;28;20045;-44
2022/04/18 08:28:07;;;;;;;9.50;6.10;;;19.50;85.80;;;;;;4993497;28;20054;-47
2022/04/18 08:30:35;;;;;;;10.55;5.60;;;18.00;84.20;;;;;;4992099;28;20041;-48
2022/04/18 08:33:00;;;;;;;9.50;6.50;;;18.60;84.50;;;;;;4991202;28;20746;-46
2022/04/18 08:35:26;;;;;;;8.73;5.70;;;18.50;83.30;;;;;;4994381;28;20045;-48
2022/04/18 08:37:52;;;;;;;10.18;6.30;;;18.30;86.10;;;;;;4992546;28;20045;-48
2022/04/18 08:40:18;;;;;;;10.50;6.05;;;18.00;86.40;;;;;;4988809;28;20077;-47
2022/04/18 08:42:44;;;;;;;9.63;5.75;;;17.90;88.60;;;;;;4972709;28;20560;-48
2022/04/18 08:45:13;;;;;;;9.45;6.15;;;18.60;88.40;;;;;;4988084;28;20045;-46
2022/04/18 08:53:15;;;;;;;8.93;6.10;;;18.20;87.80;;;;;;4991762;28;20157;-46
2022/04/18 08:55:41;;;;;;;11.57;6.43;;;17.90;88.40;;;;;;4992617;28;20450;-48
2022/04/18 08:58:09;;;;;;;10.13;5.78;;;17.90;89.20;;;;;;4971590;28;20046;-48
2022/04/18 09:00:35;;;;;;;9.32;5.93;;;18.00;87.30;;;;;;4991364;28;20037;-47
2022/04/18 09:03:00;;;;;;;8.38;6.10;;;19.30;88.80;;;;;;4990765;28;20053;-48
2022/04/18 09:05:26;;;;;;;10.63;6.35;;;20.40;90.50;;;;;;4993222;28;20040;-46
2022/04/18 09:08:06;;;;;;;10.90;6.65;;;18.30;87.40;;;;;;4992508;28;20425;-47
2022/04/18 09:10:32;;;;;;;12.80;6.00;;;18.10;88.40;;;;;;4991018;28;20037;-47
2022/04/18 09:13:04;;;;;;;12.23;6.75;;;19.20;88.60;;;;;;4974089;28;20041;-44
2022/04/18 09:15:41;;;;;;;10.05;5.97;;;18.40;88.90;;;;;;4991322;28;20068;-47
2022/04/18 09:18:09;;;;;;;9.60;5.72;;;18.70;86.60;;;;;;4990016;28;20038;-48
2022/04/18 09:21:04;;;;;;;9.48;5.63;;;19.00;86.90;;;;;;4985466;28;20637;-46
2022/04/18 09:23:33;;;;;;;8.68;5.32;;;19.60;85.60;;;;;;4986608;28;20062;-48
2022/04/18 09:26:03;;;;;;;8.82;5.43;;;20.00;86.20;;;;;;4990935;28;20715;-48
2022/04/18 09:28:35;;;;;;;8.57;5.93;;;20.40;85.20;;;;;;4994385;28;20791;-48
2022/04/18 09:31:11;;;;;;;10.27;6.38;;;22.30;86.40;;;;;;4994207;28;20042;-47
2022/04/18 09:33:43;;;;;;;10.10;5.97;;;20.80;87.00;;;;;;4993102;28;20437;-45
2022/04/18 09:36:21;;;;;;;8.55;5.90;;;20.80;86.90;;;;;;4996028;28;20045;-48
2022/04/18 09:38:53;;;;;;;10.25;6.20;;;22.50;86.10;;;;;;4996093;28;20091;-44
2022/04/18 09:41:25;;;;;;;10.15;5.53;;;19.70;85.90;;;;;;4977235;28;20084;-48
2022/04/18 09:43:52;;;;;;;;;;;19.30;88.40;;;;;;4996594;28;20455;-48
2022/04/18 09:46:19;;;;;;;8.35;5.65;;;19.10;88.80;;;;;;4994392;28;20122;-45
2022/04/18 09:48:48;;;;;;;7.68;5.28;;;19.00;87.70;;;;;;4974670;28;20094;-48
2022/04/18 09:51:26;;;;;;;8.48;5.75;;;18.90;87.10;;;;;;4993501;28;20060;-48
2022/04/18 09:53:57;;;;;;;7.72;5.25;;;19.00;85.80;;;;;;4995806;28;20122;-48
2022/04/18 09:56:24;;;;;;;9.50;5.07;;;19.80;89.00;;;;;;4995727;28;20121;-46
2022/04/18 09:58:51;;;;;;;8.63;5.15;;;19.10;88.00;;;;;;4995478;28;20041;-48
2022/04/18 10:01:17;;;;;;;11.85;5.75;;;19.20;88.10;;;;;;4995013;28;20046;-44
2022/04/18 10:03:44;;;;;;;9.98;5.10;;;18.90;87.90;;;;;;4993406;28;20096;-47
2022/04/18 10:06:10;;;;;;;7.88;4.95;;;19.10;86.60;;;;;;4994244;28;20726;-44
2022/04/18 10:08:37;;;;;;;7.28;4.80;;;19.10;87.20;;;;;;4995012;28;20121;-45
2022/04/18 10:11:05;;;;;;;8.38;4.97;;;19.20;88.30;;;;;;4994702;28;20290;-46
2022/04/18 10:13:32;;;;;;;9.10;4.38;;;19.30;87.70;;;;;;4995464;28;20199;-47
2022/04/18 10:15:59;;;;;;;7.57;4.20;;;19.50;86.70;;;;;;4994492;28;20042;-44
2022/04/18 10:18:26;;;;;;;7.90;4.25;;;19.80;87.80;;;;;;4977372;28;20471;-47
2022/04/18 10:21:07;;;;;;;7.15;4.40;;;19.70;87.50;;;;;;4994264;28;20080;-48
2022/04/18 10:24:20;;;;;;;8.50;5.03;;;19.90;88.30;;;;;;4994199;28;20037;-47
2022/04/18 10:27:25;;;;;;;6.70;4.45;;;20.00;88.20;;;;;;4915378;29;20043;-48
2022/04/18 10:29:55;;;;;;;6.93;4.53;;;20.20;87.50;;;;;;4914043;29;20086;-47
2022/04/18 10:32:26;;;;;;;9.43;4.63;;;20.30;85.40;;;;;;4915517;29;20058;-46
2022/04/18 10:34:56;;;;;;;6.33;3.50;;;20.40;86.50;;;;;;4916154;29;20438;-47
2022/04/18 10:37:24;;;;;;;6.50;3.90;;;20.30;83.80;;;;;;4916381;29;20295;-48
2022/04/18 10:40:08;;;;;;;7.22;4.18;;;20.40;86.20;;;;;;4915849;29;20187;-46
2022/04/18 10:42:36;;;;;;;7.97;4.40;;;20.30;83.70;;;;;;4915809;29;20134;-48
2022/04/18 10:45:17;;;;;;;9.60;3.65;;;20.30;86.70;;;;;;4916287;29;20051;-48
2022/04/18 10:47:55;;;;;;;6.15;3.65;;;20.40;83.80;;;;;;4916335;29;20054;-43
2022/04/18 10:50:22;;;;;;;6.13;3.47;;;20.30;82.80;;;;;;4917093;29;20058;-46
2022/04/18 10:53:07;;;;;;;7.57;4.20;;;20.70;84.30;;;;;;4916557;29;20387;-46
2022/04/18 10:55:32;;;;;;;9.05;4.57;;;20.60;84.10;;;;;;4915476;29;20044;-45
2022/04/18 10:58:16;;;;;;;8.52;3.90;;;20.70;83.30;;;;;;4915569;29;20079;-47
2022/04/18 11:00:54;;;;;;;5.65;2.90;;;20.80;84.20;;;;;;4916409;29;20047;-46
2022/04/18 11:03:35;;;;;;;5.78;3.20;;;20.70;81.30;;;;;;4957995;28;20050;-46
2022/04/18 11:06:07;;;;;;;7.43;3.20;;;20.80;82.20;;;;;;4994544;28;20050;-46
2022/04/18 11:08:38;;;;;;;7.40;3.60;;;20.50;80.60;;;;;;4994209;28;20297;-46
2022/04/18 11:11:16;;;;;;;6.95;3.67;;;20.60;78.80;;;;;;4976139;28;20108;-48
2022/04/18 11:13:49;;;;;;;6.38;4.03;;;20.50;81.60;;;;;;4992751;28;20053;-48
2022/04/18 11:16:23;;;;;;;7.95;4.32;;;22.20;82.60;;;;;;4992886;28;20096;-47
2022/04/18 11:19:45;;;;;;;8.68;4.03;;;20.50;80.70;;;;;;4992577;28;20041;-47
2022/04/18 11:22:19;;;;;;;10.48;4.15;;;20.50;82.80;;;;;;4933659;28;20415;-47
2022/04/18 11:24:54;;;;;;;6.55;3.80;;;20.70;82.10;;;;;;4933267;28;20134;-48
2022/04/18 11:27:26;;;;;;;6.90;3.42;;;20.70;80.90;;;;;;4916011;28;20056;-46
2022/04/18 11:30:13;;;;;;;5.97;3.08;;;20.80;84.20;;;;;;4913151;29;21503;-45
2022/04/18 11:32:46;;;;;;;6.90;3.75;;;20.80;82.90;;;;;;4913892;29;20044;-47
2022/04/18 11:35:13;;;;;;;6.60;3.70;;;23.30;81.90;;;;;;4914269;29;20047;-47
2022/04/18 11:37:45;;;;;;;5.50;3.22;;;21.00;81.80;;;;;;4913944;29;20044;-47
2022/04/18 11:40:15;;;;;;;6.55;3.25;;;21.20;81.60;;;;;;4913021;29;20055;-48
2022/04/18 11:42:42;;;;;;;6.05;3.20;;;21.10;80.70;;;;;;4913901;29;20114;-47
2022/04/18 11:45:10;;;;;;;6.25;3.78;;;20.90;79.50;;;;;;4913145;29;20083;-47
2022/04/18 11:47:44;;;;;;;4.75;3.00;;;20.90;80.50;;;;;;4913648;29;20039;-43
2022/04/18 11:50:11;;;;;;;4.97;2.60;;;21.10;80.80;;;;;;4913178;29;21316;-46
2022/04/18 11:52:41;;;;;;;7.70;3.10;;;20.90;80.60;;;;;;4913265;29;20047;-44
2022/04/18 11:55:14;;;;;;;6.72;3.22;;;21.00;79.00;;;;;;4905204;28;20069;-48
2022/04/18 11:57:43;;;;;;;5.85;3.00;;;21.00;76.40;;;;;;4954092;28;20516;-47
2022/04/18 12:00:14;;;;;;;5.30;2.80;;;22.80;81.20;;;;;;4953428;28;20049;-45
2022/04/18 12:08:18;;;;;;;4.53;2.58;;;22.40;81.00;;;;;;4954134;28;20593;-46
2022/04/18 12:10:45;;;;;;;6.15;2.53;;;20.90;81.30;;;;;;4948962;28;20038;-47
2022/04/18 12:13:12;;;;;;;5.60;2.58;;;21.00;79.50;;;;;;4952866;28;20515;-47
2022/04/18 12:15:39;;;;;;;10.10;2.83;;;21.10;79.60;;;;;;4954384;28;20046;-45
2022/04/18 12:18:11;;;;;;;5.50;2.50;;;20.90;79.90;;;;;;4954667;28;20185;-47
2022/04/18 12:20:40;;;;;;;;;;;18.60;77.70;;;;;;4954031;28;20179;-44
2022/04/18 12:23:06;;;;;;;5.65;3.25;;;21.00;81.80;;;;;;4952553;28;19933;-47
2022/04/18 12:25:33;;;;;;;7.32;3.30;;;20.80;79.00;;;;;;4952682;28;20039;-46
2022/04/18 12:28:02;;;;;;;5.88;3.17;;;20.70;78.50;;;;;;4990812;28;20294;-46
2022/04/18 12:30:30;;;;;;;6.82;3.00;;;20.50;80.60;;;;;;4992797;28;20053;-47
2022/04/18 12:33:14;;;;;;;5.15;2.78;;;21.00;79.00;;;;;;4992884;28;20088;-48
2022/04/18 12:35:42;;;;;;;5.78;2.97;;;20.70;79.00;;;;;;4990896;28;20422;-48
2022/04/18 12:38:10;;;;;;;6.15;2.97;;;20.80;79.20;;;;;;4990486;28;20155;-47
2022/04/18 12:40:39;;;;;;;6.10;3.17;;;20.70;77.30;;;;;;4991187;28;20120;-46
2022/04/18 12:43:07;;;;;;;4.20;2.40;;;20.60;79.00;;;;;;4991995;28;20595;-48
2022/04/18 12:45:46;;;;;;;8.52;3.63;;;20.70;81.30;;;;;;4988158;28;20041;-48
2022/04/18 12:48:12;;;;;;;5.55;2.75;;;20.70;79.50;;;;;;4992524;28;20042;-48
2022/04/18 12:50:38;;;;;;;5.57;2.85;;;20.60;77.50;;;;;;4992205;28;20038;-43
2022/04/18 12:53:06;;;;;;;4.85;2.67;;;20.60;80.50;;;;;;4990956;28;20418;-48
2022/04/18 12:55:32;;;;;;;8.05;2.90;;;20.80;80.60;;;;;;4991772;28;20034;-47
2022/04/18 12:58:00;;;;;;;6.97;3.55;;;20.70;79.70;;;;;;4991871;28;20068;-43
2022/04/18 13:00:37;;;;;;;5.43;2.70;;;22.60;80.80;;;;;;4991754;28;20042;-48
2022/04/18 13:03:08;;;;;;;5.68;2.92;;;20.60;80.00;;;;;;4994907;28;20133;-45
2022/04/18 13:05:41;;;;;;;5.28;2.80;;;20.50;80.10;;;;;;4995464;28;20084;-44
2022/04/18 13:08:08;;;;;;;7.30;2.72;;;20.60;81.40;;;;;;4996116;28;20675;-48
2022/04/18 13:10:36;;;;;;;5.50;2.75;;;20.60;80.90;;;;;;4996335;28;20124;-48
2022/04/18 13:13:17;;;;;;;7.20;2.65;;;20.40;80.80;;;;;;4977719;28;20048;-48
2022/04/18 13:15:46;;;;;;;4.10;2.70;;;20.80;79.90;;;;;;4991618;28;20286;-45
2022/04/18 13:18:21;;;;;;;6.20;2.70;;;20.70;81.30;;;;;;4994629;28;20045;-48
2022/04/18 13:20:47;;;;;;;5.05;2.47;;;19.30;77.40;;;;;;4994677;28;20038;-48
2022/04/18 13:23:13;;;;;;;5.22;3.03;;;22.30;81.50;;;;;;4993627;28;20198;-48
2022/04/18 13:25:39;;;;;;;5.97;3.13;;;20.70;78.50;;;;;;4993839;28;20084;-45
2022/04/18 13:28:07;;;;;;;5.50;2.85;;;20.60;77.80;;;;;;4972284;28;20042;-46
2022/04/18 13:30:37;;;;;;;4.82;2.45;;;20.50;76.20;;;;;;4975425;28;20038;-47
2022/04/18 13:33:06;;;;;;;5.63;3.03;;;20.50;77.00;;;;;;4991751;28;20108;-46
2022/04/18 13:36:30;;;;;;;6.65;3.00;;;20.40;80.40;;;;;;4975911;28;20053;-47
2022/04/18 13:38:22;;;;;;;5.35;2.72;;;21.50;81.90;;;;;;4977403;28;20054;-48